Time,TemperatureF,DewpointF,PressureIn,WindDirection,WindDirectionDegrees,WindSpeedMPH,WindSpeedGustMPH,Humidity,HourlyPrecipIn,Conditions,Clouds,dailyrainin,SolarRadiationWatts/m^2,SoftwareType,DateUTC
2013-03-20 00:00:00,12.3,9.4,30.42,South,190,0.0,0.0,88,0.00,,,0.00,0,WeatherTracker,2013-03-20 06:00:00,
2013-03-20 00:10:00,12.3,9.2,30.42,South,190,0.0,0.0,87,0.00,,,0.00,0,WeatherTracker,2013-03-20 06:10:00,
2013-03-20 00:20:00,12.7,9.8,30.42,South,190,0.0,0.0,88,0.00,,,0.00,0,WeatherTracker,2013-03-20 06:20:00,
2013-03-20 00:30:00,12.9,10.0,30.41,South,190,1.0,0.0,88,0.00,,,0.00,0,WeatherTracker,2013-03-20 06:30:00,
2013-03-20 00:40:00,12.6,9.5,30.41,South,190,0.0,0.0,87,0.00,,,0.00,0,WeatherTracker,2013-03-20 06:40:00,
2013-03-20 00:50:00,12.6,9.5,30.41,South,190,0.0,0.0,87,0.00,,,0.00,0,WeatherTracker,2013-03-20 06:50:00,
2013-03-20 01:00:00,12.4,9.3,30.40,South,190,0.0,0.0,87,0.00,,,0.00,0,WeatherTracker,2013-03-20 07:00:00,
2013-03-20 01:10:00,12.6,9.7,30.40,South,190,0.0,0.0,88,0.00,,,0.00,0,WeatherTracker,2013-03-20 07:10:00,
2013-03-20 01:20:00,12.7,9.8,30.39,South,190,0.0,0.0,88,0.00,,,0.00,0,WeatherTracker,2013-03-20 07:20:00,
2013-03-20 01:30:00,12.8,9.9,30.39,South,190,0.0,0.0,88,0.00,,,0.00,0,WeatherTracker,2013-03-20 07:30:00,
2013-03-20 01:40:00,13.1,10.5,30.39,South,190,0.0,0.0,89,0.00,,,0.00,0,WeatherTracker,2013-03-20 07:40:00,
2013-03-20 01:50:00,13.3,10.4,30.38,South,190,0.0,0.0,88,0.00,,,0.00,0,WeatherTracker,2013-03-20 07:50:00,
2013-03-20 02:00:00,13.6,10.7,30.38,South,191,1.0,0.0,88,0.00,,,0.00,0,WeatherTracker,2013-03-20 08:00:00,
2013-03-20 02:10:00,13.7,10.8,30.38,SSW,209,0.0,0.0,88,0.00,,,0.00,0,WeatherTracker,2013-03-20 08:10:00,
2013-03-20 02:20:00,14.0,11.4,30.37,WSW,246,0.0,0.0,89,0.00,,,0.00,0,WeatherTracker,2013-03-20 08:20:00,
2013-03-20 02:30:00,14.2,11.3,30.37,WSW,246,2.0,0.0,88,0.00,,,0.00,0,WeatherTracker,2013-03-20 08:30:00,
2013-03-20 02:40:00,14.8,11.4,30.36,West,275,0.0,0.0,86,0.00,,,0.00,0,WeatherTracker,2013-03-20 08:40:00,
2013-03-20 02:50:00,14.9,12.0,30.36,West,275,2.0,0.0,88,0.00,,,0.00,0,WeatherTracker,2013-03-20 08:50:00,
2013-03-20 03:00:00,14.9,11.7,30.35,West,275,0.0,0.0,87,0.00,,,0.00,0,WeatherTracker,2013-03-20 09:00:00,
2013-03-20 03:10:00,15.3,12.4,30.34,West,275,1.0,0.0,88,0.00,,,0.00,0,WeatherTracker,2013-03-20 09:10:00,
2013-03-20 03:20:00,15.0,11.6,30.34,West,275,0.0,0.0,86,0.00,,,0.00,0,WeatherTracker,2013-03-20 09:20:00,
2013-03-20 03:30:00,15.5,12.3,30.33,West,275,3.0,0.0,87,0.00,,,0.00,0,WeatherTracker,2013-03-20 09:30:00,
2013-03-20 03:40:00,15.6,12.4,30.33,West,275,2.0,0.0,87,0.00,,,0.00,0,WeatherTracker,2013-03-20 09:40:00,
2013-03-20 03:50:00,15.8,12.6,30.32,West,275,0.0,0.0,87,0.00,,,0.00,0,WeatherTracker,2013-03-20 09:50:00,
2013-03-20 04:00:00,15.5,12.1,30.32,West,275,0.0,0.0,86,0.00,,,0.00,0,WeatherTracker,2013-03-20 10:00:00,
2013-03-20 04:10:00,15.8,12.4,30.31,West,275,0.0,0.0,86,0.00,,,0.00,0,WeatherTracker,2013-03-20 10:10:00,
2013-03-20 04:20:00,16.3,12.3,30.30,West,275,1.0,0.0,84,0.00,,,0.00,0,WeatherTracker,2013-03-20 10:20:00,
2013-03-20 04:30:00,16.4,12.2,30.30,West,275,2.0,0.0,83,0.00,,,0.00,0,WeatherTracker,2013-03-20 10:30:00,
2013-03-20 04:40:00,16.7,11.9,30.30,West,275,2.0,0.0,81,0.00,,,0.00,0,WeatherTracker,2013-03-20 10:40:00,
2013-03-20 04:50:00,17.3,11.9,30.30,West,275,2.0,0.0,79,0.00,,,0.00,0,WeatherTracker,2013-03-20 10:50:00,
2013-03-20 05:00:00,17.2,12.4,30.29,West,275,2.0,0.0,81,0.00,,,0.00,0,WeatherTracker,2013-03-20 11:00:00,
2013-03-20 05:10:00,17.1,12.3,30.28,West,275,1.0,0.0,81,0.00,,,0.00,0,WeatherTracker,2013-03-20 11:10:00,
2013-03-20 05:20:00,17.1,12.3,30.28,West,275,1.0,0.0,81,0.00,,,0.00,0,WeatherTracker,2013-03-20 11:20:00,
2013-03-20 05:30:00,17.7,12.0,30.28,West,275,1.0,0.0,78,0.00,,,0.00,0,WeatherTracker,2013-03-20 11:30:00,
2013-03-20 05:40:00,19.4,12.2,30.27,West,275,1.0,0.0,73,0.00,,,0.00,0,WeatherTracker,2013-03-20 11:40:00,
2013-03-20 05:50:00,20.9,12.4,30.26,West,275,2.0,0.0,69,0.00,,,0.00,0,WeatherTracker,2013-03-20 11:50:00,
2013-03-20 06:00:00,19.3,11.8,30.26,West,275,2.0,0.0,72,0.00,,,0.00,0,WeatherTracker,2013-03-20 12:00:00,
2013-03-20 06:10:00,19.4,11.9,30.25,West,275,0.0,0.0,72,0.00,,,0.00,0,WeatherTracker,2013-03-20 12:10:00,
2013-03-20 06:20:00,18.8,11.6,30.25,West,275,2.0,0.0,73,0.00,,,0.00,0,WeatherTracker,2013-03-20 12:20:00,
2013-03-20 06:30:00,18.5,11.9,30.25,West,275,0.0,0.0,75,0.00,,,0.00,0,WeatherTracker,2013-03-20 12:30:00,
2013-03-20 06:40:00,18.8,11.6,30.24,West,275,2.0,0.0,73,0.00,,,0.00,0,WeatherTracker,2013-03-20 12:40:00,
2013-03-20 06:50:00,19.5,11.7,30.23,West,275,1.0,0.0,71,0.00,,,0.00,0,WeatherTracker,2013-03-20 12:50:00,
2013-03-20 07:00:00,21.3,11.4,30.23,West,275,2.0,0.0,65,0.00,,,0.00,0,WeatherTracker,2013-03-20 13:00:00,
2013-03-20 07:10:00,21.4,12.5,30.22,West,275,3.0,0.0,68,0.00,,,0.00,0,WeatherTracker,2013-03-20 13:10:00,
2013-03-20 07:20:00,20.0,12.5,30.21,West,275,1.0,0.0,72,0.00,,,0.00,12,WeatherTracker,2013-03-20 13:20:00,
2013-03-20 07:30:00,20.0,12.5,30.20,West,275,2.0,0.0,72,0.00,,,0.00,25,WeatherTracker,2013-03-20 13:30:00,
2013-03-20 07:40:00,21.6,12.0,30.19,West,275,0.0,0.0,66,0.00,,,0.00,37,WeatherTracker,2013-03-20 13:40:00,
2013-03-20 07:50:00,22.7,13.4,30.18,West,275,0.0,0.0,67,0.00,,,0.00,69,WeatherTracker,2013-03-20 13:50:00,
2013-03-20 08:00:00,22.6,14.0,30.17,West,275,0.0,0.0,69,0.00,,,0.00,74,WeatherTracker,2013-03-20 14:00:00,
2013-03-20 08:10:00,23.3,14.7,30.17,West,275,1.0,0.0,69,0.00,,,0.00,97,WeatherTracker,2013-03-20 14:10:00,
2013-03-20 08:20:00,24.7,15.3,30.16,West,275,2.0,0.0,67,0.00,,,0.00,130,WeatherTracker,2013-03-20 14:20:00,
2013-03-20 08:30:00,25.6,16.2,30.15,West,275,4.0,0.0,67,0.00,,,0.00,195,WeatherTracker,2013-03-20 14:30:00,
2013-03-20 08:40:00,27.3,17.5,30.14,West,275,0.0,0.0,66,0.00,,,0.00,239,WeatherTracker,2013-03-20 14:40:00,
2013-03-20 08:50:00,28.8,18.2,30.13,West,275,0.0,0.0,64,0.00,,,0.00,257,WeatherTracker,2013-03-20 14:50:00,
2013-03-20 09:03:00,30.5,18.7,30.12,West,275,3.0,0.0,61,0.00,,,0.00,276,WeatherTracker,2013-03-20 15:03:00,
2013-03-20 09:10:00,31.5,19.6,30.12,West,275,0.0,0.0,61,0.00,,,0.00,332,WeatherTracker,2013-03-20 15:10:00,
2013-03-20 09:20:00,33.5,18.2,30.11,West,275,0.0,0.0,53,0.00,,,0.00,366,WeatherTracker,2013-03-20 15:20:00,
2013-03-20 09:30:00,35.3,15.1,30.11,West,275,2.0,0.0,43,0.00,,,0.00,352,WeatherTracker,2013-03-20 15:30:00,
2013-03-20 09:40:00,35.1,13.2,30.10,West,273,1.0,0.0,40,0.00,,,0.00,439,WeatherTracker,2013-03-20 15:40:00,
2013-03-20 09:50:00,34.3,12.5,30.10,West,272,2.0,0.0,40,0.00,,,0.00,443,WeatherTracker,2013-03-20 15:50:00,
2013-03-20 10:00:00,33.7,13.6,30.09,West,272,2.0,0.0,43,0.00,,,0.00,410,WeatherTracker,2013-03-20 16:00:00,
2013-03-20 10:10:00,32.6,14.1,30.08,West,272,0.0,0.0,46,0.00,,,0.00,415,WeatherTracker,2013-03-20 16:10:00,
2013-03-20 10:20:00,34.1,17.4,30.08,West,272,2.0,0.0,50,0.00,,,0.00,359,WeatherTracker,2013-03-20 16:20:00,
2013-03-20 10:30:00,33.5,16.9,30.07,West,272,0.0,0.0,50,0.00,,,0.00,269,WeatherTracker,2013-03-20 16:30:00,
2013-03-20 10:40:00,32.3,18.0,30.07,West,272,2.0,0.0,55,0.00,,,0.00,255,WeatherTracker,2013-03-20 16:40:00,
2013-03-20 10:50:00,31.6,17.7,30.07,West,272,0.0,0.0,56,0.00,,,0.00,339,WeatherTracker,2013-03-20 16:50:00,
2013-03-20 11:00:00,32.1,19.4,30.07,West,272,2.0,0.0,59,0.00,,,0.00,316,WeatherTracker,2013-03-20 17:00:00,
2013-03-20 11:10:00,32.1,18.6,30.06,West,272,0.0,0.0,57,0.00,,,0.00,334,WeatherTracker,2013-03-20 17:10:00,
2013-03-20 11:20:00,33.7,19.7,30.06,West,272,1.0,0.0,56,0.00,,,0.00,404,WeatherTracker,2013-03-20 17:20:00,
2013-03-20 11:30:00,36.3,21.3,30.05,West,272,1.0,0.0,54,0.00,,,0.00,531,WeatherTracker,2013-03-20 17:30:00,
2013-03-20 11:40:00,34.6,21.8,30.04,West,270,1.0,0.0,59,0.00,,,0.00,536,WeatherTracker,2013-03-20 17:40:00,
2013-03-20 11:50:00,34.7,21.5,30.03,West,270,1.0,0.0,58,0.00,,,0.00,438,WeatherTracker,2013-03-20 17:50:00,
2013-03-20 12:00:00,36.3,20.8,30.01,West,269,2.0,0.0,53,0.00,,,0.00,608,WeatherTracker,2013-03-20 18:00:00,
2013-03-20 12:10:00,38.2,20.7,30.01,NNE,15,2.0,0.0,49,0.00,,,0.00,735,WeatherTracker,2013-03-20 18:10:00,
2013-03-20 12:20:00,37.9,20.5,30.01,ESE,119,2.0,0.0,49,0.00,,,0.00,466,WeatherTracker,2013-03-20 18:20:00,
2013-03-20 12:30:00,37.3,21.8,30.00,ESE,119,1.0,0.0,53,0.00,,,0.00,322,WeatherTracker,2013-03-20 18:30:00,
2013-03-20 12:40:00,36.9,23.1,30.00,ESE,119,2.0,0.0,57,0.00,,,0.00,308,WeatherTracker,2013-03-20 18:40:00,
2013-03-20 12:50:00,36.1,22.4,30.00,ESE,118,2.0,0.0,57,0.00,,,0.00,255,WeatherTracker,2013-03-20 18:50:00,
2013-03-20 13:00:00,36.0,22.7,30.00,ESE,118,4.0,0.0,58,0.00,,,0.00,220,WeatherTracker,2013-03-20 19:00:00,
2013-03-20 13:10:00,35.9,23.0,29.99,East,101,2.0,0.0,59,0.00,,,0.00,250,WeatherTracker,2013-03-20 19:10:00,
2013-03-20 13:20:00,37.3,22.6,29.99,East,101,1.0,0.0,55,0.00,,,0.00,269,WeatherTracker,2013-03-20 19:20:00,
2013-03-20 13:30:00,37.2,22.5,29.98,East,101,2.0,0.0,55,0.00,,,0.00,213,WeatherTracker,2013-03-20 19:30:00,
2013-03-20 13:40:00,37.5,22.8,29.98,East,101,0.0,0.0,55,0.00,,,0.00,302,WeatherTracker,2013-03-20 19:40:00,
2013-03-20 14:00:00,39.4,22.8,29.95,East,101,0.0,0.0,51,0.00,,,0.00,258,WeatherTracker,2013-03-20 20:00:00,
2013-03-20 14:10:00,39.7,23.1,29.95,East,101,0.0,0.0,51,0.00,,,0.00,234,WeatherTracker,2013-03-20 20:10:00,
2013-03-20 14:20:00,40.2,21.6,29.94,East,101,0.0,0.0,47,0.00,,,0.00,236,WeatherTracker,2013-03-20 20:20:00,
2013-03-20 14:30:00,41.1,22.4,29.93,East,101,0.0,0.0,47,0.00,,,0.00,230,WeatherTracker,2013-03-20 20:30:00,
2013-03-20 14:40:00,41.5,19.6,29.92,East,101,1.0,0.0,41,0.00,,,0.00,290,WeatherTracker,2013-03-20 20:40:00,
2013-03-20 14:50:00,42.1,18.9,29.92,East,101,1.0,0.0,39,0.00,,,0.00,316,WeatherTracker,2013-03-20 20:50:00,
2013-03-20 15:00:00,42.5,17.4,29.91,East,101,0.0,0.0,36,0.00,,,0.00,327,WeatherTracker,2013-03-20 21:00:00,
2013-03-20 15:10:00,43.8,16.6,29.91,East,101,1.0,0.0,33,0.00,,,0.00,243,WeatherTracker,2013-03-20 21:10:00,
2013-03-20 15:20:00,44.2,15.5,29.90,East,101,1.0,0.0,31,0.00,,,0.00,251,WeatherTracker,2013-03-20 21:20:00,
2013-03-20 15:30:00,45.0,13.9,29.89,East,101,0.0,0.0,28,0.00,,,0.00,260,WeatherTracker,2013-03-20 21:30:00,
2013-03-20 15:40:00,45.3,14.1,29.89,East,101,0.0,0.0,28,0.00,,,0.00,232,WeatherTracker,2013-03-20 21:40:00,
2013-03-20 15:50:00,46.1,14.0,29.89,East,101,0.0,0.0,27,0.00,,,0.00,199,WeatherTracker,2013-03-20 21:50:00,
2013-03-20 16:00:00,46.2,14.1,29.88,East,101,0.0,0.0,27,0.00,,,0.00,130,WeatherTracker,2013-03-20 22:00:00,
2013-03-20 16:10:00,46.1,13.1,29.88,East,101,1.0,0.0,26,0.00,,,0.00,148,WeatherTracker,2013-03-20 22:10:00,
2013-03-20 16:20:00,46.3,13.3,29.87,East,101,0.0,0.0,26,0.00,,,0.00,81,WeatherTracker,2013-03-20 22:20:00,
2013-03-20 16:30:00,46.6,13.6,29.86,East,101,1.0,0.0,26,0.00,,,0.00,162,WeatherTracker,2013-03-20 22:30:00,
2013-03-20 16:40:00,46.8,16.2,29.86,East,101,0.0,0.0,29,0.00,,,0.00,155,WeatherTracker,2013-03-20 22:40:00,
2013-03-20 16:50:00,46.8,16.2,29.86,East,101,0.0,0.0,29,0.00,,,0.00,97,WeatherTracker,2013-03-20 22:50:00,
2013-03-20 17:00:00,46.7,16.2,29.86,East,101,0.0,0.0,29,0.00,,,0.00,120,WeatherTracker,2013-03-20 23:00:00,
2013-03-20 17:10:00,46.7,15.3,29.85,East,101,0.0,0.0,28,0.00,,,0.00,69,WeatherTracker,2013-03-20 23:10:00,
2013-03-20 17:20:00,46.5,16.8,29.85,East,101,0.0,0.0,30,0.00,,,0.00,83,WeatherTracker,2013-03-20 23:20:00,
2013-03-20 17:30:00,46.0,19.2,29.85,East,101,0.0,0.0,34,0.00,,,0.00,98,WeatherTracker,2013-03-20 23:30:00,
2013-03-20 17:40:00,44.6,22.9,29.84,East,101,0.0,0.0,42,0.00,,,0.00,70,WeatherTracker,2013-03-20 23:40:00,
2013-03-20 17:50:00,43.3,23.9,29.83,East,101,0.0,0.0,46,0.00,,,0.00,77,WeatherTracker,2013-03-20 23:50:00,
2013-03-20 18:00:00,42.2,25.9,29.83,East,101,0.0,0.0,52,0.00,,,0.00,76,WeatherTracker,2013-03-21 00:00:00,
2013-03-20 18:10:00,42.0,24.7,29.83,East,101,1.0,0.0,50,0.00,,,0.00,69,WeatherTracker,2013-03-21 00:10:00,
2013-03-20 18:20:00,41.7,23.0,29.82,East,101,0.0,0.0,47,0.00,,,0.00,32,WeatherTracker,2013-03-21 00:20:00,
2013-03-20 18:30:00,40.5,23.8,29.82,East,101,0.0,0.0,51,0.00,,,0.00,18,WeatherTracker,2013-03-21 00:30:00,
2013-03-20 18:40:00,39.4,22.8,29.82,East,101,0.0,0.0,51,0.00,,,0.00,14,WeatherTracker,2013-03-21 00:40:00,
2013-03-20 18:50:00,38.2,21.7,29.82,East,101,0.0,0.0,51,0.00,,,0.00,12,WeatherTracker,2013-03-21 00:50:00,
2013-03-20 19:00:00,37.3,21.3,29.82,East,101,0.0,0.0,52,0.00,,,0.00,9,WeatherTracker,2013-03-21 01:00:00,
2013-03-20 19:10:00,36.7,22.5,29.81,East,101,1.0,0.0,56,0.00,,,0.00,5,WeatherTracker,2013-03-21 01:10:00,
2013-03-20 19:20:00,36.0,22.7,29.80,East,101,0.0,0.0,58,0.00,,,0.00,0,WeatherTracker,2013-03-21 01:20:00,
2013-03-20 19:30:00,35.6,21.5,29.80,East,101,2.0,0.0,56,0.00,,,0.00,0,WeatherTracker,2013-03-21 01:30:00,
2013-03-20 19:40:00,35.3,21.6,29.80,East,101,2.0,0.0,57,0.00,,,0.00,0,WeatherTracker,2013-03-21 01:40:00,
2013-03-20 19:50:00,35.3,21.6,29.80,East,101,1.0,0.0,57,0.00,,,0.00,0,WeatherTracker,2013-03-21 01:50:00,
2013-03-20 20:00:00,34.5,20.9,29.80,East,101,0.0,0.0,57,0.00,,,0.00,0,WeatherTracker,2013-03-21 02:00:00,
2013-03-20 20:10:00,34.4,20.3,29.79,East,101,0.0,0.0,56,0.00,,,0.00,0,WeatherTracker,2013-03-21 02:10:00,
2013-03-20 20:20:00,34.4,20.3,29.79,East,101,0.0,0.0,56,0.00,,,0.00,0,WeatherTracker,2013-03-21 02:20:00,
2013-03-20 20:30:00,34.2,21.8,29.80,East,101,0.0,0.0,60,0.00,,,0.00,0,WeatherTracker,2013-03-21 02:30:00,
2013-03-20 20:40:00,33.7,20.1,29.79,East,101,0.0,0.0,57,0.00,,,0.00,0,WeatherTracker,2013-03-21 02:40:00,
2013-03-20 20:50:00,32.9,20.9,29.79,East,101,2.0,0.0,61,0.00,,,0.00,0,WeatherTracker,2013-03-21 02:50:00,
2013-03-20 21:00:00,32.1,20.9,29.79,East,101,0.0,0.0,63,0.00,,,0.00,0,WeatherTracker,2013-03-21 03:00:00,
2013-03-20 21:10:00,31.8,22.8,29.78,East,101,0.0,0.0,69,0.00,,,0.00,0,WeatherTracker,2013-03-21 03:10:00,
2013-03-20 21:20:00,31.9,20.8,29.77,East,101,0.0,0.0,63,0.00,,,0.00,0,WeatherTracker,2013-03-21 03:20:00,
2013-03-20 21:30:00,32.6,21.4,29.77,East,101,0.0,0.0,63,0.00,,,0.00,0,WeatherTracker,2013-03-21 03:30:00,
2013-03-20 21:40:00,32.8,21.2,29.77,East,101,0.0,0.0,62,0.00,,,0.00,0,WeatherTracker,2013-03-21 03:40:00,
2013-03-20 21:50:00,32.9,21.7,29.77,East,101,1.0,0.0,63,0.00,,,0.00,0,WeatherTracker,2013-03-21 03:50:00,
2013-03-20 22:00:00,32.4,21.6,29.77,East,101,3.0,0.0,64,0.00,,,0.00,0,WeatherTracker,2013-03-21 04:00:00,
2013-03-20 22:10:00,32.1,21.7,29.76,East,101,2.0,0.0,65,0.00,,,0.00,0,WeatherTracker,2013-03-21 04:10:00,
2013-03-20 22:20:00,33.0,21.8,29.76,SE,139,1.0,0.0,63,0.00,,,0.00,0,WeatherTracker,2013-03-21 04:20:00,
2013-03-20 22:30:00,33.1,21.5,29.75,SE,139,1.0,0.0,62,0.00,,,0.00,0,WeatherTracker,2013-03-21 04:30:00,
2013-03-20 22:40:00,32.8,21.6,29.75,SSW,192,0.0,0.0,63,0.00,,,0.00,0,WeatherTracker,2013-03-21 04:40:00,
2013-03-20 22:50:00,32.6,21.4,29.75,SSW,192,1.0,0.0,63,0.00,,,0.00,0,WeatherTracker,2013-03-21 04:50:00,
2013-03-20 23:00:00,32.3,22.6,29.74,WSW,243,3.0,0.0,67,0.00,,,0.00,0,WeatherTracker,2013-03-21 05:00:00,
2013-03-20 23:10:00,32.0,21.6,29.74,WSW,242,0.0,0.0,65,0.00,,,0.00,0,WeatherTracker,2013-03-21 05:10:00,
2013-03-20 23:20:00,32.7,22.6,29.74,WSW,243,0.0,0.0,66,0.00,,,0.00,0,WeatherTracker,2013-03-21 05:20:00,
2013-03-20 23:30:00,33.0,22.2,29.73,WSW,243,2.0,0.0,64,0.00,,,0.00,0,WeatherTracker,2013-03-21 05:30:00,
2013-03-20 23:40:00,33.1,22.3,29.73,WSW,243,0.0,0.0,64,0.00,,,0.00,0,WeatherTracker,2013-03-21 05:40:00,
2013-03-20 23:50:00,32.0,22.7,29.73,WSW,244,0.0,0.0,68,0.00,,,0.00,0,WeatherTracker,2013-03-21 05:50:00,